createdAt,value
2023-01-19T00:01:11.553Z,44.70
2023-01-19T00:04:05.908Z,45.00
2023-01-19T00:07:00.367Z,44.80
2023-01-19T00:09:54.788Z,44.80
2023-01-19T00:12:52.190Z,44.40
2023-01-19T00:15:46.474Z,44.40
2023-01-19T00:18:42.024Z,45.20
2023-01-19T00:21:38.514Z,44.70
2023-01-19T00:24:32.772Z,44.80
2023-01-19T00:27:27.153Z,45.00
2023-01-19T00:30:24.293Z,45.40
2023-01-19T00:33:21.682Z,45.60
2023-01-19T00:36:16.037Z,46.00
2023-01-19T00:39:10.805Z,46.20
2023-01-19T00:42:23.407Z,46.10
2023-01-19T00:45:25.216Z,45.10
2023-01-19T00:48:19.449Z,45.40
2023-01-19T00:51:13.735Z,45.20
2023-01-19T00:54:11.452Z,44.10
2023-01-19T00:57:06.176Z,44.20
2023-01-19T01:00:00.409Z,44.30
2023-01-19T01:02:55.667Z,45.70
2023-01-19T01:05:51.483Z,44.60
2023-01-19T01:08:45.878Z,45.30
2023-01-19T01:11:41.698Z,44.40
2023-01-19T01:14:36.046Z,44.30
2023-01-19T01:17:30.298Z,44.40
2023-01-19T01:20:31.476Z,43.80
2023-01-19T01:23:25.766Z,44.70
2023-01-19T01:26:20.127Z,45.40
2023-01-19T01:29:14.551Z,44.50
2023-01-19T01:32:09.393Z,44.20
2023-01-19T01:35:03.639Z,44.60
2023-01-19T01:38:00.697Z,45.00
2023-01-19T01:40:55.060Z,45.70
2023-01-19T01:43:50.853Z,43.60
2023-01-19T01:46:45.116Z,44.10
2023-01-19T01:49:39.519Z,44.10
2023-01-19T01:52:37.529Z,44.30
2023-01-19T01:55:34.555Z,43.50
2023-01-19T01:58:29.424Z,43.80
2023-01-19T02:01:44.600Z,44.60
2023-01-19T02:04:41.833Z,44.40
2023-01-19T02:08:04.461Z,43.70
2023-01-19T02:11:18.123Z,43.20
2023-01-19T02:14:12.415Z,43.60
2023-01-19T02:17:10.390Z,43.60
2023-01-19T02:20:04.665Z,42.20
2023-01-19T02:23:04.749Z,42.70
2023-01-19T02:25:59.493Z,42.80
2023-01-19T02:28:58.903Z,42.70
2023-01-19T02:31:54.126Z,41.60
2023-01-19T02:34:48.340Z,41.70
2023-01-19T02:37:44.703Z,42.10
2023-01-19T02:40:39.857Z,42.20
2023-01-19T02:43:37.948Z,40.90
2023-01-19T02:46:32.337Z,41.20
2023-01-19T02:49:31.425Z,41.40
2023-01-19T02:52:26.297Z,41.00
2023-01-19T02:55:27.017Z,41.30
2023-01-19T02:58:55.189Z,40.70
2023-01-19T03:02:05.891Z,40.70
2023-01-19T03:05:12.450Z,41.20
2023-01-19T03:08:19.133Z,41.50
2023-01-19T03:11:24.431Z,40.70
2023-01-19T03:14:25.023Z,40.30
2023-01-19T03:17:20.799Z,40.60
2023-01-19T03:20:17.904Z,41.50
2023-01-19T03:23:14.618Z,40.20
2023-01-19T03:26:13.649Z,40.60
2023-01-19T03:29:11.158Z,40.20
2023-01-19T03:32:10.478Z,39.60
2023-01-19T03:35:09.057Z,39.90
2023-01-19T03:38:09.943Z,39.80
2023-01-19T03:41:07.616Z,40.30
2023-01-19T03:44:02.933Z,38.80
2023-01-19T03:47:00.157Z,39.50
2023-01-19T03:49:54.875Z,39.50
2023-01-19T03:53:12.740Z,39.70
2023-01-19T03:56:07.569Z,39.20
2023-01-19T03:59:01.920Z,38.80
2023-01-19T04:01:56.435Z,39.30
2023-01-19T04:04:50.844Z,39.40
2023-01-19T04:07:45.231Z,38.60
2023-01-19T04:10:40.236Z,38.80
2023-01-19T04:13:34.668Z,39.40
2023-01-19T04:16:29.027Z,39.20
2023-01-19T04:19:23.375Z,39.60
2023-01-19T04:22:17.687Z,39.40
2023-01-19T04:25:12.670Z,38.70
2023-01-19T04:28:10.696Z,38.20
2023-01-19T04:31:08.683Z,38.40
2023-01-19T04:34:03.615Z,38.30
2023-01-19T04:36:58.050Z,38.60
2023-01-19T04:39:52.518Z,39.90
2023-01-19T04:42:47.294Z,40.20
2023-01-19T04:45:44.632Z,40.40
2023-01-19T04:48:40.117Z,39.80
2023-01-19T04:51:35.679Z,39.30
2023-01-19T04:54:30.012Z,38.90
2023-01-19T04:57:24.341Z,39.20
2023-01-19T05:00:19.417Z,38.60
2023-01-19T05:03:14.005Z,38.00
2023-01-19T05:06:09.096Z,38.40
2023-01-19T05:09:03.428Z,38.20
2023-01-19T05:11:57.685Z,38.40
2023-01-19T05:14:51.992Z,39.20
2023-01-19T05:17:46.563Z,38.90
2023-01-19T05:20:41.406Z,38.60
2023-01-19T05:23:36.128Z,38.90
2023-01-19T05:26:30.420Z,39.60
2023-01-19T05:29:24.644Z,39.40
2023-01-19T05:32:18.895Z,39.20
2023-01-19T05:35:20.112Z,39.70
2023-01-19T05:38:29.330Z,39.10
2023-01-19T05:41:30.372Z,38.50
2023-01-19T05:44:24.641Z,38.90
2023-01-19T05:47:19.002Z,38.50
2023-01-19T05:50:13.323Z,38.70
2023-01-19T05:53:07.552Z,38.70
2023-01-19T05:56:03.697Z,39.00
2023-01-19T05:58:58.187Z,39.50
2023-01-19T06:01:55.724Z,40.00
2023-01-19T06:04:49.928Z,39.50
2023-01-19T06:07:44.262Z,40.00
2023-01-19T06:10:38.519Z,40.60
2023-01-19T06:13:32.747Z,39.90
2023-01-19T06:16:27.054Z,40.70
2023-01-19T06:19:21.415Z,40.20
2023-01-19T06:22:15.708Z,40.80
2023-01-19T06:25:10.620Z,40.50
2023-01-19T06:28:13.910Z,40.10
2023-01-19T06:31:08.263Z,40.10
2023-01-19T06:34:02.553Z,40.20
2023-01-19T06:36:58.959Z,40.00
2023-01-19T06:39:55.604Z,40.80
2023-01-19T06:42:51.032Z,40.60
2023-01-19T06:45:46.111Z,40.30
2023-01-19T06:48:40.439Z,40.60
2023-01-19T06:51:34.701Z,40.20
2023-01-19T06:54:28.962Z,40.90
2023-01-19T06:57:25.267Z,41.10
2023-01-19T07:00:20.279Z,41.00
2023-01-19T07:03:22.595Z,41.00
2023-01-19T07:06:17.065Z,40.60
2023-01-19T07:09:16.223Z,40.70
2023-01-19T07:12:20.156Z,40.80
2023-01-19T07:15:15.153Z,40.70
2023-01-19T07:18:12.730Z,40.80
2023-01-19T07:21:08.351Z,40.50
2023-01-19T07:24:02.638Z,41.10
2023-01-19T07:26:56.818Z,41.00
2023-01-19T07:29:50.982Z,41.00
2023-01-19T07:32:48.016Z,41.70
2023-01-19T07:35:42.264Z,41.40
2023-01-19T07:38:36.771Z,42.00
2023-01-19T07:41:31.003Z,42.60
2023-01-19T07:44:25.403Z,43.10
2023-01-19T07:47:19.888Z,43.10
2023-01-19T07:50:17.868Z,43.00
2023-01-19T07:53:13.135Z,43.00
2023-01-19T07:56:08.920Z,43.40
2023-01-19T07:59:03.376Z,43.90
2023-01-19T08:01:59.617Z,44.00
2023-01-19T08:04:54.043Z,43.80
2023-01-19T08:07:49.632Z,43.70
2023-01-19T08:10:43.957Z,44.10
2023-01-19T08:13:38.181Z,44.60
2023-01-19T08:16:32.494Z,44.60
2023-01-19T08:19:27.177Z,44.60
2023-01-19T08:22:21.420Z,45.00
2023-01-19T08:25:15.689Z,45.40
2023-01-19T08:28:11.667Z,45.90
2023-01-19T08:31:19.151Z,46.20
2023-01-19T08:34:17.237Z,46.60
2023-01-19T08:37:11.635Z,46.30
2023-01-19T08:40:06.284Z,46.40
2023-01-19T08:43:08.500Z,47.00
2023-01-19T08:46:02.799Z,47.30
2023-01-19T08:48:57.369Z,47.70
2023-01-19T08:51:51.686Z,47.90
2023-01-19T08:54:46.148Z,48.20
2023-01-19T08:57:40.415Z,48.50
2023-01-19T09:00:35.715Z,49.00
2023-01-19T09:03:29.930Z,49.40
2023-01-19T09:06:26.519Z,49.60
2023-01-19T09:09:20.813Z,49.60
2023-01-19T09:12:16.087Z,50.00
2023-01-19T09:15:12.039Z,50.20
2023-01-19T09:21:16.340Z,50.90
2023-01-19T09:24:10.878Z,50.90
2023-01-19T09:27:05.323Z,51.20
2023-01-19T09:30:00.055Z,51.60
2023-01-19T09:32:54.628Z,51.80
2023-01-19T09:35:50.741Z,52.10
2023-01-19T09:38:45.269Z,52.30
2023-01-19T09:41:43.908Z,52.60
2023-01-19T09:44:38.705Z,53.10
2023-01-19T09:47:34.952Z,53.20
2023-01-19T09:50:36.567Z,53.60
2023-01-19T09:53:33.814Z,53.80
2023-01-19T09:56:31.882Z,53.90
2023-01-19T09:59:32.535Z,54.20
2023-01-19T10:02:44.574Z,54.50
2023-01-19T10:05:55.419Z,54.60
2023-01-19T10:09:05.349Z,54.70
2023-01-19T10:12:10.235Z,54.70
2023-01-19T10:15:35.982Z,54.70
2023-01-19T10:18:41.788Z,55.10
2023-01-19T10:21:45.261Z,55.00
2023-01-19T10:24:45.185Z,55.20
2023-01-19T10:27:40.181Z,55.40
2023-01-19T10:30:35.127Z,55.50
2023-01-19T10:33:29.856Z,55.60
2023-01-19T10:36:36.397Z,55.60
2023-01-19T10:39:30.635Z,55.80
2023-01-19T10:42:27.281Z,56.10
2023-01-19T10:45:24.255Z,56.60
2023-01-19T10:48:18.718Z,56.80
2023-01-19T10:51:13.576Z,56.60
2023-01-19T10:54:14.615Z,56.30
2023-01-19T10:57:14.383Z,56.70
2023-01-19T11:00:31.311Z,56.70
2023-01-19T11:03:33.606Z,57.30
2023-01-19T11:06:31.296Z,57.30
2023-01-19T11:09:25.554Z,57.90
2023-01-19T11:12:23.210Z,59.10
2023-01-19T11:15:26.747Z,59.40
2023-01-19T11:18:26.600Z,59.30
2023-01-19T11:21:28.578Z,59.30
2023-01-19T11:24:27.064Z,59.70
2023-01-19T11:27:24.364Z,60.30
2023-01-19T11:30:21.907Z,60.00
2023-01-19T11:33:27.795Z,60.70
2023-01-19T11:36:32.976Z,61.00
2023-01-19T11:39:30.547Z,61.20
2023-01-19T11:42:26.266Z,61.90
2023-01-19T11:45:21.753Z,62.60
2023-01-19T11:48:30.878Z,63.00
2023-01-19T11:51:29.883Z,63.50
2023-01-19T11:54:31.318Z,63.70
2023-01-19T11:57:25.950Z,63.80
2023-01-19T12:00:37.517Z,63.90
2023-01-19T12:03:54.821Z,64.20
2023-01-19T12:06:55.722Z,63.90
2023-01-19T12:09:55.229Z,64.00
2023-01-19T12:12:50.529Z,64.10
2023-01-19T12:15:46.245Z,63.80
2023-01-19T12:18:51.596Z,63.80
2023-01-19T12:21:58.367Z,63.70
2023-01-19T12:25:01.651Z,64.00
2023-01-19T12:27:56.736Z,64.00
2023-01-19T12:30:53.392Z,64.30
2023-01-19T12:33:48.508Z,64.70
2023-01-19T12:36:42.915Z,65.00
2023-01-19T12:39:51.044Z,65.10
2023-01-19T12:42:58.807Z,65.10
2023-01-19T12:45:53.138Z,65.60
2023-01-19T12:48:47.415Z,66.40
2023-01-19T12:51:41.663Z,67.20
2023-01-19T12:54:36.205Z,67.70
2023-01-19T12:57:51.726Z,67.70
2023-01-19T13:00:48.796Z,68.40
2023-01-19T13:04:09.378Z,68.90
2023-01-19T13:07:07.013Z,69.40
2023-01-19T13:10:01.311Z,70.10
2023-01-19T13:13:32.365Z,70.60
2023-01-19T13:16:59.102Z,71.10
2023-01-19T13:20:06.784Z,71.70
2023-01-19T13:23:23.797Z,72.30
2023-01-19T13:26:26.474Z,72.70
2023-01-19T13:29:35.337Z,73.00
2023-01-19T13:32:33.842Z,73.10
2023-01-19T13:35:28.075Z,73.00
2023-01-19T13:38:23.025Z,73.00
2023-01-19T13:41:20.333Z,73.20
2023-01-19T13:44:22.630Z,73.00
2023-01-19T13:47:24.275Z,72.80
2023-01-19T13:50:27.447Z,72.70
2023-01-19T13:53:24.936Z,72.40
2023-01-19T13:56:23.384Z,72.40
2023-01-19T13:59:20.832Z,72.20
2023-01-19T14:02:16.805Z,72.60
2023-01-19T14:05:21.570Z,72.30
2023-01-19T14:08:19.387Z,72.60
2023-01-19T14:11:16.923Z,73.00
2023-01-19T14:14:31.247Z,73.30
2023-01-19T14:17:26.986Z,73.60
2023-01-19T14:20:31.991Z,73.80
2023-01-19T14:23:53.105Z,73.80
2023-01-19T14:27:11.618Z,74.00
2023-01-19T14:30:23.047Z,74.60
2023-01-19T14:33:36.874Z,74.60
2023-01-19T14:36:35.812Z,75.10
2023-01-19T14:39:34.021Z,75.90
2023-01-19T14:42:32.344Z,76.10
2023-01-19T14:45:39.041Z,76.60
2023-01-19T14:48:33.435Z,77.10
2023-01-19T14:51:29.422Z,77.30
2023-01-19T14:54:34.363Z,77.50
2023-01-19T14:57:28.764Z,77.90
2023-01-19T15:00:23.523Z,78.20
2023-01-19T15:03:18.537Z,78.40
2023-01-19T15:06:17.106Z,78.90
2023-01-19T15:09:17.156Z,78.80
2023-01-19T15:12:15.079Z,78.30
2023-01-19T15:15:16.471Z,78.10
2023-01-19T15:18:22.636Z,79.00
2023-01-19T15:21:21.330Z,78.80
2023-01-19T15:24:17.806Z,79.10
2023-01-19T15:27:13.970Z,79.20
2023-01-19T15:30:21.226Z,79.60
2023-01-19T15:33:25.800Z,79.40
2023-01-19T15:36:22.223Z,79.30
2023-01-19T15:39:18.134Z,78.70
2023-01-19T15:42:16.882Z,77.60
2023-01-19T15:45:27.412Z,78.50
2023-01-19T15:48:23.617Z,76.40
2023-01-19T15:51:29.464Z,76.30
2023-01-19T15:54:23.779Z,74.90
2023-01-19T15:57:18.191Z,74.60
2023-01-19T16:00:12.853Z,74.00
2023-01-19T16:03:07.155Z,72.80
2023-01-19T16:06:07.394Z,72.20
2023-01-19T16:09:02.565Z,71.50
2023-01-19T16:11:58.847Z,71.20
2023-01-19T16:14:55.337Z,70.90
2023-01-19T16:17:49.535Z,71.00
2023-01-19T16:20:43.861Z,70.10
2023-01-19T16:23:38.039Z,69.50
2023-01-19T16:26:37.941Z,69.30
2023-01-19T16:29:32.903Z,68.90
2023-01-19T16:32:27.136Z,68.30
2023-01-19T16:35:21.361Z,68.00
2023-01-19T16:38:15.753Z,68.00
2023-01-19T16:41:12.077Z,68.00
2023-01-19T16:44:07.276Z,67.90
2023-01-19T16:47:01.541Z,67.70
2023-01-19T16:49:56.095Z,67.40
2023-01-19T16:52:51.864Z,67.80
2023-01-19T16:55:46.103Z,67.70
2023-01-19T16:58:40.623Z,67.60
2023-01-19T17:01:37.825Z,67.10
2023-01-19T17:04:34.957Z,66.40
2023-01-19T17:07:30.249Z,66.30
2023-01-19T17:10:24.752Z,66.40
2023-01-19T17:13:19.249Z,66.10
2023-01-19T17:16:13.495Z,66.20
2023-01-19T17:19:09.560Z,66.50
2023-01-19T17:22:03.820Z,66.60
2023-01-19T17:25:00.900Z,67.10
2023-01-19T17:27:55.197Z,67.10
2023-01-19T17:30:50.786Z,67.10
2023-01-19T17:33:49.711Z,67.20
2023-01-19T17:36:46.834Z,66.90
2023-01-19T17:39:41.173Z,67.00
2023-01-19T17:42:35.507Z,67.20
2023-01-19T17:45:29.788Z,67.30
2023-01-19T17:48:24.113Z,67.20
2023-01-19T17:51:18.444Z,67.40
2023-01-19T17:54:12.903Z,67.70
2023-01-19T17:57:07.519Z,67.90
2023-01-19T18:00:01.876Z,67.70
2023-01-19T18:02:56.185Z,67.70
2023-01-19T18:05:59.585Z,67.90
2023-01-19T18:08:53.937Z,67.90
2023-01-19T18:11:48.203Z,68.50
2023-01-19T18:14:42.591Z,67.90
2023-01-19T18:17:37.370Z,68.10
2023-01-19T18:20:33.456Z,68.10
2023-01-19T18:23:28.038Z,67.80
2023-01-19T18:26:26.728Z,68.20
2023-01-19T18:29:21.779Z,67.70
2023-01-19T18:32:16.004Z,67.60
2023-01-19T18:35:10.691Z,67.50
2023-01-19T18:38:04.967Z,67.90
2023-01-19T18:41:03.225Z,68.10
2023-01-19T18:44:00.776Z,67.90
2023-01-19T18:46:58.438Z,67.90
2023-01-19T18:49:52.857Z,68.00
2023-01-19T18:52:52.600Z,67.90
2023-01-19T18:55:58.492Z,68.10
2023-01-19T18:58:54.514Z,68.50
2023-01-19T19:01:49.116Z,68.40
2023-01-19T19:04:43.946Z,68.50
2023-01-19T19:07:41.058Z,68.30
2023-01-19T19:10:37.818Z,68.40
2023-01-19T19:13:32.004Z,68.50
2023-01-19T19:16:27.012Z,68.50
2023-01-19T19:19:21.681Z,68.50
2023-01-19T19:22:16.059Z,68.40
2023-01-19T19:25:10.842Z,68.40
2023-01-19T19:28:05.626Z,68.30
2023-01-19T19:31:11.873Z,68.30
2023-01-19T19:34:06.403Z,68.50
2023-01-19T19:37:01.292Z,68.50
2023-01-19T19:39:57.087Z,68.60
2023-01-19T19:42:58.715Z,68.40
2023-01-19T19:46:16.945Z,68.20
2023-01-19T19:49:13.262Z,68.20
2023-01-19T19:52:07.666Z,68.10
2023-01-19T19:55:01.997Z,68.70
2023-01-19T19:57:56.590Z,68.20
2023-01-19T20:00:50.894Z,68.20
2023-01-19T20:03:45.632Z,67.30
2023-01-19T20:06:47.940Z,67.00
2023-01-19T20:09:44.923Z,66.80
2023-01-19T20:12:39.163Z,66.30
2023-01-19T20:15:36.856Z,66.10
2023-01-19T20:18:31.555Z,66.20
2023-01-19T20:21:27.612Z,66.00
2023-01-19T20:24:22.482Z,65.70
2023-01-19T20:27:16.748Z,65.50
2023-01-19T20:30:11.934Z,65.50
2023-01-19T20:33:08.926Z,65.20
2023-01-19T20:36:03.240Z,65.10
2023-01-19T20:38:58.545Z,64.80
2023-01-19T20:41:56.424Z,64.80
2023-01-19T20:44:50.999Z,64.90
2023-01-19T20:47:45.311Z,64.50
2023-01-19T20:50:39.608Z,64.70
2023-01-19T20:53:34.222Z,64.80
2023-01-19T20:56:28.471Z,65.00
2023-01-19T20:59:22.691Z,65.20
2023-01-19T21:02:18.070Z,65.60
2023-01-19T21:05:12.625Z,66.00
2023-01-19T21:08:07.574Z,65.80
2023-01-19T21:11:02.670Z,65.60
2023-01-19T21:14:00.108Z,65.60
2023-01-19T21:16:53.888Z,65.60
2023-01-19T21:19:48.193Z,65.30
2023-01-19T21:22:46.983Z,65.50
2023-01-19T21:25:41.305Z,65.90
2023-01-19T21:28:35.648Z,66.10
2023-01-19T21:31:33.533Z,66.20
2023-01-19T21:34:27.739Z,65.70
2023-01-19T21:37:22.149Z,65.90
2023-01-19T21:40:16.429Z,66.20
2023-01-19T21:43:14.265Z,65.70
2023-01-19T21:46:23.668Z,65.00
2023-01-19T21:49:22.023Z,65.00
2023-01-19T21:52:16.220Z,65.10
2023-01-19T21:55:11.044Z,64.30
2023-01-19T21:58:05.911Z,63.90
2023-01-19T22:01:06.270Z,63.80
2023-01-19T22:04:05.199Z,63.70
2023-01-19T22:06:59.456Z,63.50
2023-01-19T22:09:53.757Z,63.60
2023-01-19T22:12:48.052Z,63.10
2023-01-19T22:15:42.342Z,63.10
2023-01-19T22:18:37.277Z,62.80
2023-01-19T22:21:34.332Z,62.40
2023-01-19T22:24:28.711Z,63.30
2023-01-19T22:27:22.930Z,62.10
2023-01-19T22:30:19.819Z,61.50
2023-01-19T22:33:14.135Z,60.40
2023-01-19T22:36:28.439Z,59.10
2023-01-19T22:39:22.676Z,58.90
2023-01-19T22:42:16.979Z,58.20
2023-01-19T22:45:11.864Z,57.10
2023-01-19T22:48:06.381Z,57.30
2023-01-19T22:51:00.603Z,56.70
2023-01-19T22:53:55.014Z,57.10
2023-01-19T22:56:49.245Z,55.50
2023-01-19T22:59:44.886Z,55.50
2023-01-19T23:02:39.078Z,55.10
2023-01-19T23:05:38.226Z,53.60
2023-01-19T23:08:35.176Z,53.50
2023-01-19T23:11:36.467Z,53.20
2023-01-19T23:14:33.716Z,52.30
2023-01-19T23:17:27.935Z,52.00
2023-01-19T23:20:22.938Z,51.60
2023-01-19T23:23:17.312Z,51.60
2023-01-19T23:26:23.640Z,51.10
2023-01-19T23:29:19.194Z,51.20
2023-01-19T23:32:13.693Z,50.80
2023-01-19T23:35:11.387Z,50.80
2023-01-19T23:38:05.906Z,50.50
2023-01-19T23:41:00.176Z,50.50
2023-01-19T23:43:54.936Z,51.10
2023-01-19T23:46:49.430Z,51.10
2023-01-19T23:49:43.733Z,50.60
2023-01-19T23:52:38.075Z,48.90
2023-01-19T23:55:35.079Z,49.50
2023-01-19T23:58:29.384Z,49.60
